Byers, Texas
Current Conditions -  °F | °C
As of 9:52 AM on Tuesday 21 Oct 2014 (Local Time) from KSPS Reporting Station
Clear Clear  
Wind Chill: 68°   Ceiling: Unl
Heat Index: 68°   Visibility: 9mi
Dew Point: 59°   Wind: 5mph
Humidity: 73%   Direction: 190°S
Pressure: 30.1"   Gusts: NA
Location:  34.07°N, 98.19°W
Report Text: KSPS 211452Z 19004KT 9SM CLR 20/15 A3010 RMK AO2 SLP185 T02000150 51014
Loading
Personal Weather Stations






























Interactive Weather Map
Tropical Storm Tracking
New forecast layout! Learn more

10-Day Weather Forecast

Advertisements
Track Severe Weather on mobile